Minneapolis, MN

6:54 PM CDT on June 22, 2018 (GMT -0500)
Minneapolis-Saint Paul International | | Change Station
Active Advisory: Flood Warning

Elev 840 ft 44.88 °N, 93.22 °W | Updated 1 hour ago

Mostly Cloudy
Mostly Cloudy
81 °F
Feels Like 81 °F
N
6
Wind Variable Wind from East

Today
High -- | Low -- °F
--% Chance of Precip.
Yesterday
High -- | Low -- °F
Precip. -- in
Pressure 29.80 in
Visibility 10.0 miles
Clouds Few 5000 ft
Mostly Cloudy 25000 ft
Heat Index 81 °F
Dew Point 55 °F
Humidity 41%
Rainfall 0.00 in
Snow Depth Not available.
5:26 AM 9:02 PM
Waxing Gibbous, 76% visible
METAR KMSP 222253Z 09005KT 10SM FEW050 BKN250 27/13 A2981 RMK AO2 SLP090 T02720128
Pressure 29.80 in
Visibility 10.0 miles
Clouds Few 5000 ft
Mostly Cloudy 25000 ft
Heat Index 81 °F
Dew Point 55 °F
Humidity 41%
Rainfall 0.00 in
Snow Depth Not available.
5:26 AM 9:02 PM
Waxing Gibbous, 76% visible
METAR KMSP 222253Z 09005KT 10SM FEW050 BKN250 27/13 A2981 RMK AO2 SLP090 T02720128

Get Your Daily Forecast Email!

Thanks for signing up!

Be on the lookout for a verification email in your inbox.

You'll start receiving severe weather alerts in your inbox..

×

10-Day Weather Forecast

Almanac

Astronomy

Jun. 22, 2018 Rise Set
Actual Time
Civil Twilight
Nautical Twilight
Astronomical Twilight
Moon
Length of Visible Light
Length of Day
Tomorrow will be .
, % of the Moon is Illuminated

Today's Extremes

State Highs State Lows

Community

WunderPhotos

Category 6

Welcome to Category 6. This is the collective home for Weather Underground's featured writeups by Dr. Jeff Masters (right), Bob Henson (left), Chris Burt, and other regular contributors.

Nearby

Air Quality

  Air Quality AQ Index Pollutant
Not available.

Snow Depth

Station Depth Elevation

Earthquake Activity

City Distance Mag. Time & Date
Minimum magnitude displayed is 2.5.

Coastal Water Temperatures

Place Temperature

Stations

Nearby Weather Stations

Station Location Temp. Windchill Dew Point Humidity Wind Precip. Elev Updated Type
                   

Watches & Warnings

Flood Warning
Issued: 9:43 AM CDT Jun. 22, 2018 – National Weather Service

The Flood Warning continues for
the Minnesota river at Savage.
* Until further notice.
* At 9:00 am Friday the stage was 702.3 feet.
* Minor flooding is occurring and minor flooding is forecast.
* Flood stage is 702.0 feet.
* Forecast... the river will continue rising to near 707.4 feet by
next Friday.
* Impact... at 705.0 feet... flood waters begin to impact the park Road
at Fort Snelling State Park.
* Impact... at 702.0 feet... barge loading stops at Port Cargill, and
other flood prevention measures are begun. Water begins to impact
Black Dog Road in Burnsville.
* Impact... at 700.0 feet... flood waters begin to cover trails at Fort
Snelling State Park as well as low parts on the Bloomington Ferry
bridge trail just east of US 169.


Lat... Lon 4484 9348 4484 9330 4491 9322 4482 9312 4473 9342